Time;durP1;ratioP1;P1;durP2;ratioP2;P2;SDS_P1;SDS_P2;PMS_P1;PMS_P2;Temp;Humidity;BMP_temperature;BMP_pressure;BME280_temperature;BME280_humidity;BME280_pressure;Samples;Min_cycle;Max_cycle;Signal;HPM_P1;HPM_P2
2021/12/19 00:00:36;;;;;;;3.30;3.10;;;;;;;-2.77;96.52;98130.06;6174319;23;20494;-82
2021/12/19 00:11:08;;;;;;;3.65;3.38;;;;;;;-2.70;96.92;98083.06;6148412;23;20024;-81
2021/12/19 00:13:44;;;;;;;14.75;5.22;;;;;;;-2.75;96.66;98067.06;6153940;23;20047;-80
2021/12/19 00:16:10;;;;;;;9.15;3.25;;;;;;;-2.72;96.75;98044.81;6148403;23;20107;-81
2021/12/19 00:18:36;;;;;;;3.53;3.25;;;;;;;-2.67;96.89;98048.06;6147329;23;20016;-82
2021/12/19 00:21:03;;;;;;;3.35;3.08;;;;;;;-2.74;97.14;98040.63;6173770;23;20020;-82
2021/12/19 00:23:30;;;;;;;3.75;3.45;;;;;;;-2.67;96.75;98031.91;6150794;23;20150;-82
2021/12/19 00:25:56;;;;;;;8.07;4.20;;;;;;;-2.73;96.75;98014.22;6256231;23;20337;-82
2021/12/19 00:28:29;;;;;;;2.63;2.50;;;;;;;-2.78;96.51;97993.94;6157489;23;20042;-81
2021/12/19 00:30:56;;;;;;;4.75;3.20;;;;;;;-2.74;96.42;97987.84;6157361;23;20046;-81
2021/12/19 00:33:23;;;;;;;2.90;2.70;;;;;;;-2.74;96.88;97992.97;6187533;23;20028;-81
2021/12/19 00:35:49;;;;;;;3.05;2.85;;;;;;;-2.77;97.14;97967.53;6161829;23;20023;-82
2021/12/19 00:38:16;;;;;;;3.55;3.35;;;;;;;-2.67;96.84;97985.94;6200469;23;20046;-82
2021/12/19 00:40:51;;;;;;;3.05;2.75;;;;;;;-2.65;97.05;97971.44;6173485;23;20115;-80
2021/12/19 00:43:33;;;;;;;2.65;2.55;;;;;;;-2.69;97.06;97974.94;6173297;23;20020;-81
2021/12/19 00:46:06;;;;;;;;;;;;;;;-2.63;97.43;97979.84;6129984;23;20032;-81
2021/12/19 00:48:33;;;;;;;2.85;2.65;;;;;;;-2.63;97.33;97960.28;6196136;23;19922;-81
2021/12/19 00:51:00;;;;;;;3.22;3.03;;;;;;;-2.62;97.37;97945.78;6195371;23;20044;-81
2021/12/19 00:53:32;;;;;;;2.10;2.00;;;;;;;-2.63;97.26;97918.56;6154383;23;20087;-81
2021/12/19 00:56:10;;;;;;;2.50;2.40;;;;;;;-2.66;97.06;97908.47;6198827;23;20020;-80
2021/12/19 00:58:42;;;;;;;2.90;2.70;;;;;;;-2.69;96.93;97893.25;6171514;23;20405;-81
2021/12/19 01:01:09;;;;;;;1.90;1.80;;;;;;;-2.60;96.92;97899.75;6175631;23;20082;-82
2021/12/19 01:03:36;;;;;;;2.80;2.60;;;;;;;-2.57;96.83;97895.38;6226740;23;20066;-81
2021/12/19 01:06:04;;;;;;;3.00;2.80;;;;;;;-2.57;96.47;97872.41;6152340;23;20039;-81
2021/12/19 01:08:38;;;;;;;2.42;2.33;;;;;;;-2.53;96.55;97879.09;6153237;23;20024;-81
2021/12/19 01:11:04;;;;;;;2.85;2.65;;;;;;;-2.55;96.66;97870.63;6175081;23;20027;-81
2021/12/19 01:14:12;;;;;;;2.63;2.53;;;;;;;-2.54;96.60;97864.63;6162943;23;20020;-81
2021/12/19 01:16:39;;;;;;;2.80;2.60;;;;;;;-2.55;97.37;97859.59;6176041;23;20032;-82
2021/12/19 01:19:10;;;;;;;3.20;2.90;;;;;;;-2.65;97.50;97836.91;6176265;23;20079;-82
2021/12/19 01:21:36;;;;;;;2.38;2.28;;;;;;;-2.70;97.07;97809.88;6149875;23;20016;-81
2021/12/19 01:24:02;;;;;;;2.35;2.25;;;;;;;-2.65;97.49;97813.13;6198708;23;20023;-80
2021/12/19 01:26:28;;;;;;;2.55;2.45;;;;;;;-2.64;97.56;97812.22;6122782;23;20121;-82
2021/12/19 01:28:54;;;;;;;2.85;2.65;;;;;;;-2.74;97.68;97798.13;6145922;23;20314;-81
2021/12/19 01:31:20;;;;;;;2.10;2.00;;;;;;;-2.75;97.90;97786.25;6189629;23;20551;-80
2021/12/19 01:33:46;;;;;;;5.78;3.88;;;;;;;-2.71;97.93;97787.78;6154446;23;20016;-81
2021/12/19 01:36:12;;;;;;;2.55;2.40;;;;;;;-2.62;98.04;97787.50;6204406;23;20360;-82
2021/12/19 01:38:40;;;;;;;2.83;2.67;;;;;;;-2.65;98.34;97774.84;6163472;23;19996;-81
2021/12/19 01:41:06;;;;;;;2.22;2.13;;;;;;;-2.73;98.07;97754.69;6187246;23;20059;-80
2021/12/19 01:43:32;;;;;;;4.07;3.72;;;;;;;-2.73;97.93;97757.22;6165787;23;20020;-80
2021/12/19 01:45:59;;;;;;;3.25;3.05;;;;;;;-2.62;97.90;97754.28;6239758;23;20016;-80
2021/12/19 01:48:24;;;;;;;2.42;2.33;;;;;;;-2.69;98.25;97740.91;6162825;23;20032;-81
2021/12/19 01:50:51;;;;;;;2.83;2.63;;;;;;;-2.74;98.42;97716.44;6199578;23;20368;-80
2021/12/19 01:53:43;;;;;;;3.33;3.13;;;;;;;-2.71;99.36;97706.09;6148024;23;20364;-80
2021/12/19 01:56:09;;;;;;;3.70;3.47;;;;;;;-2.62;100.00;97708.34;6133048;23;20479;-80
2021/12/19 01:58:35;;;;;;;2.47;2.30;;;;;;;-2.64;100.00;97702.44;6221314;23;20534;-80
2021/12/19 02:01:12;;;;;;;3.17;2.97;;;;;;;-2.53;100.00;97700.34;6173133;23;20039;-81
2021/12/19 02:03:39;;;;;;;3.20;3.00;;;;;;;-2.55;100.00;97694.44;6146447;23;20165;-81
2021/12/19 02:06:25;;;;;;;3.88;3.58;;;;;;;-2.58;100.00;97676.69;6177604;23;20106;-81
2021/12/19 02:09:04;;;;;;;3.10;2.90;;;;;;;-2.54;100.00;97673.13;6193849;23;20509;-81
2021/12/19 02:11:32;;;;;;;2.78;2.67;;;;;;;-2.58;100.00;97660.56;6126023;23;20024;-80
2021/12/19 02:13:59;;;;;;;2.95;2.85;;;;;;;-2.55;100.00;97656.13;6147744;23;20020;-81
2021/12/19 02:16:25;;;;;;;4.03;2.85;;;;;;;-2.46;100.00;97647.31;6171843;23;20111;-82
2021/12/19 02:18:58;;;;;;;9.38;3.10;;;;;;;-2.56;100.00;97628.97;6149887;23;20020;-81
2021/12/19 02:21:25;;;;;;;2.67;2.58;;;;;;;-2.55;100.00;97617.03;6173582;23;20023;-81
2021/12/19 02:23:51;;;;;;;2.75;2.55;;;;;;;-2.56;100.00;97602.59;6145803;23;20433;-81
2021/12/19 02:26:17;;;;;;;2.50;2.33;;;;;;;-2.48;100.00;97610.75;6122001;23;20020;-81
2021/12/19 02:28:43;;;;;;;3.25;3.05;;;;;;;-2.59;100.00;97583.13;6246025;23;20020;-81
2021/12/19 02:31:14;;;;;;;2.75;2.65;;;;;;;-2.54;100.00;97581.19;6174508;23;20103;-80
2021/12/19 02:34:09;;;;;;;3.15;2.83;;;;;;;-2.47;100.00;97571.59;6152947;23;20084;-82
2021/12/19 02:49:48;;;;;;;4.25;3.95;;;;;;;-2.51;100.00;97534.28;6151264;23;20069;-80
2021/12/19 02:52:15;;;;;;;5.15;3.42;;;;;;;-2.65;100.00;97502.47;6194739;23;20016;-82
2021/12/19 02:54:51;;;;;;;2.95;2.75;;;;;;;-2.57;100.00;97494.53;6148044;23;20047;-80
2021/12/19 02:57:17;;;;;;;3.25;3.05;;;;;;;-2.50;100.00;97485.72;6120267;23;20028;-81
2021/12/19 02:59:44;;;;;;;3.67;3.47;;;;;;;-2.44;100.00;97503.34;6219077;23;20020;-81
2021/12/19 03:02:11;;;;;;;3.50;3.22;;;;;;;-2.47;100.00;97477.94;6120381;23;20051;-81
2021/12/19 03:04:51;;;;;;;3.22;3.03;;;;;;;-2.52;100.00;97472.16;6166892;23;20024;-79
2021/12/19 03:07:18;;;;;;;12.88;3.25;;;;;;;-2.46;100.00;97471.09;6195987;23;20020;-78
2021/12/19 03:10:05;;;;;;;2.90;2.70;;;;;;;-2.53;100.00;97455.22;6192938;23;20075;-80
2021/12/19 03:17:59;;;;;;;2.42;2.30;;;;;;;-2.40;100.00;97446.16;6170382;23;20023;-80
2021/12/19 03:20:30;;;;;;;3.10;2.63;;;;;;;-2.31;98.51;97452.56;6200949;23;20483;-80
2021/12/19 03:22:58;;;;;;;2.88;2.67;;;;;;;-2.39;97.75;97432.47;6143650;23;20024;-81
2021/12/19 03:25:24;;;;;;;3.50;3.30;;;;;;;-2.40;97.25;97430.81;6169910;23;20030;-81
2021/12/19 03:27:51;;;;;;;3.30;3.10;;;;;;;-2.29;97.38;97433.72;6166980;23;20027;-81
2021/12/19 03:30:22;;;;;;;2.72;2.55;;;;;;;-2.46;96.98;97394.50;6167067;23;20035;-82
2021/12/19 03:32:49;;;;;;;2.53;2.33;;;;;;;-2.37;96.84;97402.59;6167761;23;20016;-81
2021/12/19 03:35:15;;;;;;;5.07;3.05;;;;;;;-2.33;97.10;97406.69;6146280;23;20105;-79
2021/12/19 03:37:42;;;;;;;4.93;2.53;;;;;;;-2.35;96.87;97392.28;6217733;23;20376;-81
2021/12/19 03:40:39;;;;;;;2.92;2.72;;;;;;;-2.38;96.98;97377.09;6150175;23;20020;-81
2021/12/19 03:43:07;;;;;;;2.47;2.28;;;;;;;-2.27;96.90;97393.66;6149376;23;20019;-80
2021/12/19 03:45:34;;;;;;;2.80;2.58;;;;;;;-2.36;96.09;97360.00;6122445;23;20024;-81
2021/12/19 03:48:01;;;;;;;3.05;2.85;;;;;;;-2.25;95.89;97386.72;6172642;23;20020;-81
2021/12/19 03:50:30;;;;;;;2.30;2.20;;;;;;;-2.25;96.04;97368.84;6170345;23;20036;-81
2021/12/19 03:52:56;;;;;;;2.45;2.35;;;;;;;-2.34;96.20;97338.63;6192193;23;20490;-80
2021/12/19 03:55:24;;;;;;;2.28;2.17;;;;;;;-2.21;96.33;97354.22;6197210;23;20020;-81
2021/12/19 03:57:50;;;;;;;2.60;2.50;;;;;;;-2.25;96.62;97347.59;6175036;23;20024;-81
2021/12/19 04:00:45;;;;;;;2.53;2.40;;;;;;;-2.31;96.80;97325.69;6168307;23;20020;-82
2021/12/19 04:03:23;;;;;;;2.67;2.58;;;;;;;-2.21;96.31;97329.50;6179640;23;20071;-82
2021/12/19 04:05:50;;;;;;;2.45;2.35;;;;;;;-2.24;96.59;97329.66;6203621;23;20020;-82
2021/12/19 04:08:17;;;;;;;2.70;2.55;;;;;;;-2.36;96.73;97299.56;6172566;23;20078;-82
2021/12/19 04:10:43;;;;;;;2.50;2.38;;;;;;;-2.32;96.90;97302.78;6173402;23;20098;-80
2021/12/19 04:13:09;;;;;;;2.70;2.55;;;;;;;-2.36;96.91;97294.44;6122981;23;20020;-80
2021/12/19 04:15:36;;;;;;;3.20;3.00;;;;;;;-2.29;96.81;97300.91;6146980;23;20024;-82
2021/12/19 04:18:02;;;;;;;2.55;2.35;;;;;;;-2.21;96.85;97310.78;6146531;23;20055;-82
2021/12/19 04:20:28;;;;;;;2.40;2.30;;;;;;;-2.22;96.85;97294.63;6220465;23;20031;-82
2021/12/19 04:22:54;;;;;;;2.92;2.72;;;;;;;-2.22;96.40;97286.97;6144605;23;20062;-81
2021/12/19 04:25:21;;;;;;;2.65;2.55;;;;;;;-2.23;96.01;97269.19;6192899;23;20055;-80
2021/12/19 04:27:47;;;;;;;2.58;2.38;;;;;;;-2.28;96.42;97254.03;6119971;23;20435;-81
2021/12/19 04:30:16;;;;;;;2.80;2.70;;;;;;;-2.26;96.31;97259.09;6245107;23;20020;-80
2021/12/19 04:32:56;;;;;;;2.97;2.78;;;;;;;-2.28;96.50;97245.56;6142717;23;20020;-81
2021/12/19 04:35:31;;;;;;;2.42;2.33;;;;;;;-2.29;96.49;97247.28;6159714;23;20376;-82
2021/12/19 04:57:25;;;;;;;2.85;2.65;;;;;;;-2.18;96.01;97206.75;6153806;23;20027;-83
2021/12/19 05:00:06;;;;;;;2.92;2.72;;;;;;;-2.18;96.17;97218.69;6128122;23;20020;-84
2021/12/19 05:16:25;;;;;;;2.03;1.92;;;;;;;-2.14;96.23;97172.50;6161046;23;20087;-82
2021/12/19 05:18:53;;;;;;;2.83;2.63;;;;;;;-2.17;96.03;97177.75;6171013;23;20047;-80
2021/12/19 05:21:25;;;;;;;3.40;3.20;;;;;;;-2.14;96.20;97157.16;6150164;23;20337;-82
2021/12/19 05:26:17;;;;;;;3.05;2.85;;;;;;;-2.19;96.45;97137.84;6172415;23;20136;-81
2021/12/19 05:28:52;;;;;;;3.83;3.53;;;;;;;-2.24;96.63;97130.41;6149671;23;20012;-81
2021/12/19 05:31:21;;;;;;;3.55;3.25;;;;;;;-2.19;96.68;97137.84;6198115;23;20020;-82
2021/12/19 05:33:52;;;;;;;2.70;2.50;;;;;;;-2.14;96.30;97134.19;6143358;23;20062;-82
2021/12/19 05:47:23;;;;;;;3.28;2.97;;;;;;;-2.25;96.34;97100.66;6167324;23;20024;-81
2021/12/19 05:49:49;;;;;;;3.22;2.95;;;;;;;-2.20;96.60;97114.03;6172105;23;20460;-82
2021/12/19 05:52:18;;;;;;;2.30;2.20;;;;;;;-2.23;96.48;97111.63;6175457;23;20024;-82
2021/12/19 05:54:46;;;;;;;3.10;2.88;;;;;;;-2.24;96.43;97096.38;6154290;23;20084;-81
2021/12/19 05:57:14;;;;;;;2.80;2.58;;;;;;;-2.24;96.40;97094.66;6176862;23;20027;-82
2021/12/19 05:59:41;;;;;;;3.15;2.90;;;;;;;-2.19;96.45;97097.78;6170928;23;20073;-83
2021/12/19 06:02:07;;;;;;;3.67;2.95;;;;;;;-2.19;96.32;97087.56;6145791;23;20020;-83
2021/12/19 06:04:33;;;;;;;3.72;3.53;;;;;;;-2.17;96.33;97085.78;6194813;23;20024;-82
2021/12/19 06:07:03;;;;;;;3.03;2.70;;;;;;;-2.07;96.25;97095.56;6196307;23;20407;-82
2021/12/19 06:09:30;;;;;;;2.92;2.70;;;;;;;-2.12;96.11;97088.09;6174901;23;20024;-81
2021/12/19 06:11:58;;;;;;;2.95;2.75;;;;;;;-2.01;95.93;97085.03;6222862;23;20478;-75
2021/12/19 06:14:31;;;;;;;3.58;3.25;;;;;;;-2.01;96.23;97095.25;6142968;23;20047;-81
2021/12/19 06:16:58;;;;;;;2.75;2.55;;;;;;;-2.05;96.31;97083.50;6167203;23;20054;-80
2021/12/19 06:19:30;;;;;;;3.88;2.60;;;;;;;-2.08;96.17;97068.34;6166550;23;20104;-80
2021/12/19 06:21:59;;;;;;;3.28;2.97;;;;;;;-2.08;96.25;97058.13;6191982;23;20097;-80
2021/12/19 06:24:25;;;;;;;2.95;2.63;;;;;;;-1.99;96.10;97065.31;6147013;23;20488;-80
2021/12/19 06:26:51;;;;;;;4.43;2.75;;;;;;;-1.93;96.17;97077.81;6151604;23;20020;-80
2021/12/19 06:29:32;;;;;;;3.40;3.20;;;;;;;-1.99;95.98;97057.66;6203441;23;20468;-78
2021/12/19 06:32:02;;;;;;;3.78;3.08;;;;;;;-2.07;96.36;97055.50;6194875;23;20019;-78
2021/12/19 06:34:38;;;;;;;3.92;3.50;;;;;;;-2.00;96.21;97054.31;6155590;23;20016;-78
2021/12/19 06:37:08;;;;;;;5.22;3.63;;;;;;;-1.99;96.03;97042.31;6223427;23;20023;-80
2021/12/19 06:39:36;;;;;;;3.90;3.58;;;;;;;-2.02;96.22;97033.09;6168488;23;20503;-81
2021/12/19 06:42:04;;;;;;;3.50;2.83;;;;;;;-1.91;96.17;97050.44;6188964;23;20060;-81
2021/12/19 06:44:31;;;;;;;3.78;3.47;;;;;;;-1.91;96.05;97045.34;6143827;23;20020;-79
2021/12/19 06:46:57;;;;;;;4.82;3.92;;;;;;;-1.93;95.92;97031.81;6141540;23;20027;-80
2021/12/19 06:49:23;;;;;;;4.15;3.90;;;;;;;-1.91;96.42;97024.91;6145718;23;20140;-78
2021/12/19 06:51:50;;;;;;;3.83;3.53;;;;;;;-1.91;96.05;97019.78;6189367;23;20027;-78
2021/12/19 06:54:16;;;;;;;7.75;4.18;;;;;;;-1.94;96.45;97012.28;6189226;23;20433;-77
2021/12/19 06:56:42;;;;;;;4.50;4.10;;;;;;;-1.89;96.32;97023.06;6163015;23;20047;-76
2021/12/19 06:59:08;;;;;;;3.28;3.08;;;;;;;-1.91;96.15;97010.41;6211194;23;20016;-77
2021/12/19 07:01:36;;;;;;;4.68;4.18;;;;;;;-1.81;96.03;97021.78;6138839;23;20111;-77
2021/12/19 07:04:02;;;;;;;5.10;3.78;;;;;;;-1.90;95.91;96996.72;6187499;23;20016;-77
2021/12/19 07:06:28;;;;;;;3.90;3.60;;;;;;;-1.84;95.90;96990.47;6185560;23;20023;-77
2021/12/19 07:08:54;;;;;;;4.20;3.90;;;;;;;-1.73;95.16;96995.81;6137191;23;20065;-76
2021/12/19 07:11:21;;;;;;;4.03;3.55;;;;;;;-1.80;95.67;96981.72;6212861;23;20044;-76
2021/12/19 07:13:47;;;;;;;4.00;3.70;;;;;;;-1.77;95.50;96967.06;6185689;23;20547;-76
2021/12/19 07:16:13;;;;;;;4.35;4.03;;;;;;;-1.66;95.40;96989.50;6212845;23;20472;-76
2021/12/19 07:18:39;;;;;;;4.63;4.25;;;;;;;-1.67;94.86;96991.22;6191279;23;20468;-76
2021/12/19 07:21:06;;;;;;;4.47;4.15;;;;;;;-1.70;95.34;96977.75;6116055;23;20031;-77
2021/12/19 07:23:32;;;;;;;4.70;4.38;;;;;;;-1.64;95.34;96980.03;6192520;23;20404;-76
2021/12/19 07:25:59;;;;;;;4.75;4.20;;;;;;;-1.57;94.80;96973.66;6216387;23;20040;-76
2021/12/19 07:28:25;;;;;;;4.03;3.72;;;;;;;-1.65;95.06;96966.41;6216512;23;20020;-76
2021/12/19 07:30:51;;;;;;;4.43;3.92;;;;;;;-1.54;94.86;96972.69;6142741;23;20012;-75
2021/12/19 07:33:18;;;;;;;4.15;3.85;;;;;;;-1.55;94.76;96965.91;6143838;23;20456;-76
2021/12/19 07:35:47;;;;;;;4.80;4.40;;;;;;;-1.46;95.10;96971.38;6217639;23;20027;-77
2021/12/19 07:38:25;;;;;;;4.65;4.25;;;;;;;-1.46;94.77;96976.47;6119037;23;20131;-77
2021/12/19 07:40:51;;;;;;;5.65;5.15;;;;;;;-1.40;95.15;96965.91;6145566;23;20364;-77
2021/12/19 07:43:17;;;;;;;4.25;3.90;;;;;;;-1.34;95.39;96965.59;6168507;23;20027;-77
2021/12/19 07:45:43;;;;;;;5.57;5.07;;;;;;;-1.42;94.94;96944.72;6217969;23;20024;-77
2021/12/19 07:48:20;;;;;;;7.25;5.05;;;;;;;-1.37;95.76;96942.72;6193279;23;20400;-78
2021/12/19 07:50:50;;;;;;;3.28;2.97;;;;;;;-1.36;95.72;96951.22;6192848;23;20016;-77
2021/12/19 07:53:19;;;;;;;4.50;4.10;;;;;;;-1.44;96.18;96927.81;6146960;23;20031;-77
2021/12/19 07:55:45;;;;;;;5.40;4.82;;;;;;;-1.26;95.78;96948.09;6124225;23;20012;-77
2021/12/19 07:58:11;;;;;;;4.55;4.15;;;;;;;-1.19;95.81;96944.31;6185502;23;20019;-77
2021/12/19 08:00:37;;;;;;;8.38;5.47;;;;;;;-1.23;95.37;96930.03;6221763;23;20024;-77
2021/12/19 08:03:03;;;;;;;10.63;6.07;;;;;;;-1.11;95.44;96936.19;6184492;23;20027;-76
2021/12/19 08:05:29;;;;;;;6.88;5.10;;;;;;;-1.07;95.22;96933.38;6126742;23;20315;-76
2021/12/19 08:08:00;;;;;;;6.13;5.32;;;;;;;-1.05;94.98;96936.66;6169508;23;20023;-77
2021/12/19 08:12:58;;;;;;;6.20;4.20;;;;;;;-0.92;94.22;96930.88;6166097;23;20027;-76
2021/12/19 08:15:24;;;;;;;7.75;5.95;;;;;;;-0.73;93.18;96921.25;6192461;23;20024;-77
2021/12/19 08:17:50;;;;;;;8.18;6.15;;;;;;;-0.63;92.85;96909.56;6148208;23;20490;-78
2021/12/19 08:20:17;;;;;;;7.80;6.10;;;;;;;-0.62;92.90;96913.75;6247142;23;20020;-77
2021/12/19 08:22:45;;;;;;;9.73;6.88;;;;;;;-0.56;92.12;96921.13;6172492;23;20020;-77
2021/12/19 08:25:11;;;;;;;9.05;6.40;;;;;;;-0.68;92.62;96912.38;6220496;23;20028;-77
2021/12/19 08:28:04;;;;;;;4.47;3.85;;;;;;;-0.63;92.94;96910.41;6180528;23;20102;-77
2021/12/19 08:30:37;;;;;;;11.00;7.22;;;;;;;-0.60;92.62;96911.94;6145337;23;20020;-76
2021/12/19 08:33:07;;;;;;;12.82;8.45;;;;;;;-0.59;92.80;96908.50;6168479;23;20101;-77
2021/12/19 08:35:35;;;;;;;8.00;5.30;;;;;;;-0.70;92.62;96900.59;6167956;23;20053;-77
2021/12/19 08:38:02;;;;;;;10.13;6.93;;;;;;;-0.72;93.55;96897.31;6170500;23;20024;-78
2021/12/19 08:40:29;;;;;;;10.38;6.72;;;;;;;-0.73;93.28;96887.97;6170166;23;20078;-78
2021/12/19 08:42:58;;;;;;;9.23;6.47;;;;;;;-0.65;93.75;96893.44;6194751;23;20039;-78
2021/12/19 08:45:30;;;;;;;11.00;6.90;;;;;;;-0.52;93.61;96889.25;6147612;23;20024;-78
2021/12/19 08:47:56;;;;;;;13.50;6.35;;;;;;;-0.55;93.82;96890.28;6168739;23;20028;-78
2021/12/19 08:50:23;;;;;;;8.30;6.15;;;;;;;-0.44;93.40;96883.69;6171188;23;20050;-77
2021/12/19 08:52:52;;;;;;;6.97;6.28;;;;;;;-0.41;93.45;96884.34;6144028;23;20026;-77
2021/12/19 08:55:18;;;;;;;10.02;5.40;;;;;;;-0.40;93.11;96878.31;6167727;23;20372;-77
2021/12/19 08:57:45;;;;;;;3.67;3.10;;;;;;;-0.43;93.51;96881.06;6118682;23;20097;-77
2021/12/19 09:00:13;;;;;;;6.75;6.05;;;;;;;-0.31;92.95;96867.53;6242056;23;20070;-78
2021/12/19 09:02:41;;;;;;;4.05;3.65;;;;;;;-0.31;92.84;96872.66;6167535;23;20102;-77
2021/12/19 09:05:08;;;;;;;5.95;4.43;;;;;;;-0.41;92.95;96840.81;6240204;23;20031;-77
2021/12/19 09:52:52;;;;;;;7.95;5.35;;;;;;;-0.02;94.20;96817.88;6222985;23;20106;-77
2021/12/19 09:55:21;;;;;;;7.10;4.90;;;;;;;0.02;93.94;96794.63;6135967;23;20012;-77
2021/12/19 09:57:51;;;;;;;6.13;5.65;;;;;;;0.00;93.87;96800.66;6160853;23;20019;-77
2021/12/19 10:00:17;;;;;;;4.10;3.80;;;;;;;-0.12;94.13;96806.53;6086843;23;20020;-77
2021/12/19 10:02:44;;;;;;;11.80;7.32;;;;;;;0.00;94.18;96805.00;6211287;23;20078;-77
2021/12/19 10:05:17;;;;;;;9.85;5.82;;;;;;;0.02;94.05;96794.63;6113938;23;20027;-79
2021/12/19 10:07:49;;;;;;;7.30;6.60;;;;;;;0.04;94.23;96787.66;6136356;23;20028;-80
2021/12/19 10:10:24;;;;;;;6.22;5.72;;;;;;;0.00;94.17;96776.78;6135425;23;20115;-79
2021/12/19 10:12:58;;;;;;;5.60;5.03;;;;;;;0.07;94.33;96779.75;6160541;23;20071;-79
2021/12/19 10:15:29;;;;;;;7.28;6.05;;;;;;;0.06;94.10;96773.00;6111624;23;20087;-79
2021/12/19 10:18:06;;;;;;;6.35;5.75;;;;;;;0.03;94.10;96768.06;6116211;23;20026;-78
2021/12/19 10:20:48;;;;;;;7.28;6.60;;;;;;;0.09;94.62;96780.50;6136904;23;20021;-79
2021/12/19 10:23:15;;;;;;;7.22;6.53;;;;;;;0.12;94.81;96772.63;6160605;23;20048;-79
2021/12/19 10:25:44;;;;;;;8.05;6.55;;;;;;;0.00;94.68;96764.78;6184532;23;20103;-81
2021/12/19 10:28:12;;;;;;;11.30;6.90;;;;;;;0.00;94.96;96746.81;6112592;23;20021;-80
2021/12/19 10:30:46;;;;;;;9.00;6.72;;;;;;;0.09;94.92;96762.56;6110659;23;20112;-81
2021/12/19 10:33:19;;;;;;;10.85;7.03;;;;;;;0.02;95.29;96744.19;6185798;23;20029;-81
2021/12/19 10:35:49;;;;;;;9.45;6.95;;;;;;;0.06;95.28;96758.47;6113197;23;20028;-81
2021/12/19 10:38:22;;;;;;;7.88;6.57;;;;;;;0.10;95.26;96756.53;6160205;23;20079;-81
2021/12/19 10:40:50;;;;;;;9.80;8.05;;;;;;;0.05;95.17;96746.56;6184560;23;20382;-81
2021/12/19 10:43:17;;;;;;;8.85;7.13;;;;;;;0.09;95.44;96748.00;6080464;23;20023;-79
2021/12/19 10:45:48;;;;;;;9.23;8.27;;;;;;;-0.03;95.75;96741.91;6175351;23;20095;-77
2021/12/19 10:48:21;;;;;;;10.70;8.90;;;;;;;-0.03;96.16;96744.47;6185428;23;20013;-80
2021/12/19 10:50:58;;;;;;;15.15;8.65;;;;;;;0.02;96.02;96745.91;6180984;23;20020;-78
2021/12/19 10:53:29;;;;;;;9.68;8.38;;;;;;;0.10;95.99;96746.28;6154843;23;20021;-79
2021/12/19 10:55:59;;;;;;;10.38;8.77;;;;;;;0.04;96.03;96738.94;6162160;23;20086;-78
2021/12/19 10:58:59;;;;;;;11.93;9.27;;;;;;;0.00;96.13;96733.22;6204144;23;20447;-79
2021/12/19 11:01:29;;;;;;;11.40;9.43;;;;;;;-0.05;96.19;96741.19;6159186;23;20420;-80
2021/12/19 11:04:09;;;;;;;8.73;7.63;;;;;;;-0.10;96.57;96737.28;6209755;23;20031;-79
2021/12/19 11:06:37;;;;;;;9.85;7.80;;;;;;;0.00;96.37;96744.25;6210949;23;20031;-79
2021/12/19 11:09:23;;;;;;;9.18;7.28;;;;;;;-0.03;96.27;96741.06;6214257;23;20012;-78
2021/12/19 11:12:23;;;;;;;12.10;8.25;;;;;;;0.16;96.49;96756.97;6138905;23;20020;-80
2021/12/19 11:14:50;;;;;;;11.30;7.63;;;;;;;0.15;96.34;96747.63;6208586;23;20127;-80
2021/12/19 11:17:21;;;;;;;7.90;5.97;;;;;;;0.12;96.19;96746.97;6138068;23;20020;-77
2021/12/19 11:19:49;;;;;;;7.82;6.97;;;;;;;0.22;95.85;96750.63;6212219;23;20020;-78
2021/12/19 11:22:23;;;;;;;8.45;7.55;;;;;;;0.32;96.14;96757.63;6212746;23;20368;-76
2021/12/19 11:24:53;;;;;;;11.90;8.25;;;;;;;0.23;95.58;96729.97;6162708;23;20031;-77
2021/12/19 11:27:19;;;;;;;8.32;7.40;;;;;;;0.31;95.03;96742.31;6161527;23;20031;-77
2021/12/19 11:29:45;;;;;;;7.50;6.78;;;;;;;0.27;95.18;96740.88;6211573;23;20103;-77
2021/12/19 11:32:18;;;;;;;5.63;3.40;;;;;;;0.27;94.62;96746.00;6188129;23;20379;-77
2021/12/19 11:35:03;;;;;;;5.28;4.38;;;;;;;0.39;94.20;96750.38;6213003;23;20022;-80
2021/12/19 11:37:39;;;;;;;8.52;3.42;;;;;;;0.39;93.27;96746.03;6213713;23;20020;-79
2021/12/19 11:40:07;;;;;;;6.15;3.72;;;;;;;0.34;92.81;96731.88;6163250;23;20464;-79
2021/12/19 11:42:42;;;;;;;5.85;3.10;;;;;;;0.32;92.48;96736.28;6139618;23;20115;-80
2021/12/19 11:48:17;;;;;;;6.22;3.50;;;;;;;0.52;90.92;96744.31;6248760;23;20012;-81
2021/12/19 11:50:47;;;;;;;8.20;3.13;;;;;;;0.43;90.85;96736.41;6167423;23;20024;-82
2021/12/19 11:53:16;;;;;;;4.70;2.87;;;;;;;0.48;90.74;96742.06;6165273;23;20042;-79
2021/12/19 11:55:46;;;;;;;2.17;2.08;;;;;;;0.49;90.72;96743.72;6213159;23;20042;-79
2021/12/19 11:58:14;;;;;;;3.50;3.20;;;;;;;0.51;89.94;96739.31;6164584;23;20043;-80
2021/12/19 12:00:47;;;;;;;2.28;2.13;;;;;;;0.37;90.30;96726.53;6164617;23;20087;-80
2021/12/19 12:03:21;;;;;;;3.15;2.78;;;;;;;0.51;90.15;96752.13;6168212;23;20019;-81
2021/12/19 12:05:50;;;;;;;1.73;1.70;;;;;;;0.42;90.11;96737.34;6173961;23;20024;-80
2021/12/19 12:08:30;;;;;;;1.80;1.70;;;;;;;0.46;89.94;96741.34;6176053;23;20023;-80
2021/12/19 12:10:57;;;;;;;6.43;2.70;;;;;;;0.47;90.23;96740.41;6143967;23;20012;-80
2021/12/19 12:13:42;;;;;;;2.10;1.83;;;;;;;0.40;89.86;96736.59;6216012;23;20420;-82
2021/12/19 12:19:03;;;;;;;2.30;2.20;;;;;;;0.35;90.38;96726.66;6221987;23;20027;-80
2021/12/19 12:24:12;;;;;;;2.35;2.15;;;;;;;0.33;90.90;96725.09;6211522;23;20012;-80
2021/12/19 12:29:46;;;;;;;2.88;2.67;;;;;;;0.31;90.82;96729.50;6174620;23;20103;-79
2021/12/19 12:32:11;;;;;;;3.15;2.95;;;;;;;0.26;91.46;96716.97;6117712;23;20032;-80
2021/12/19 12:34:39;;;;;;;2.08;1.98;;;;;;;0.23;92.00;96719.72;6217460;23;20024;-79
2021/12/19 12:37:07;;;;;;;4.55;3.38;;;;;;;0.20;92.34;96716.53;6144192;23;20448;-81
2021/12/19 12:39:38;;;;;;;2.58;2.33;;;;;;;0.14;92.25;96709.25;6144474;23;20012;-79
2021/12/19 12:42:10;;;;;;;3.20;3.00;;;;;;;0.15;92.64;96716.03;6118528;23;20023;-79
2021/12/19 12:44:36;;;;;;;5.22;3.50;;;;;;;0.21;92.06;96725.88;6243482;23;20020;-79
2021/12/19 12:47:03;;;;;;;3.70;3.40;;;;;;;0.16;91.77;96713.38;6140800;23;20024;-81
2021/12/19 12:49:54;;;;;;;1.83;1.73;;;;;;;0.21;91.68;96723.31;6157729;23;20369;-79
2021/12/19 12:52:23;;;;;;;3.67;3.45;;;;;;;0.17;91.54;96706.47;6161011;23;20532;-78
2021/12/19 12:54:50;;;;;;;5.70;3.97;;;;;;;0.32;90.99;96728.59;6140954;23;20070;-78
2021/12/19 12:57:16;;;;;;;5.40;3.15;;;;;;;0.30;91.06;96720.16;6165190;23;20019;-78
2021/12/19 12:59:43;;;;;;;7.25;3.15;;;;;;;0.35;90.18;96723.25;6164384;23;20055;-80
2021/12/19 13:04:37;;;;;;;1.75;1.65;;;;;;;0.40;89.06;96721.22;6192069;23;20357;-81
2021/12/19 13:07:10;;;;;;;2.63;2.53;;;;;;;0.38;88.96;96712.81;6120031;23;20027;-81
2021/12/19 13:09:54;;;;;;;6.53;2.08;;;;;;;0.49;88.54;96725.78;6219457;23;20023;-81
2021/12/19 13:12:28;;;;;;;2.90;2.40;;;;;;;0.40;88.21;96705.81;6195984;23;20437;-81
2021/12/19 13:15:12;;;;;;;2.95;2.53;;;;;;;0.48;87.42;96716.41;6175374;23;20020;-79
2021/12/19 13:17:49;;;;;;;2.13;1.98;;;;;;;0.44;87.58;96704.72;6176455;23;20026;-79
2021/12/19 13:20:20;;;;;;;2.35;2.20;;;;;;;0.58;87.50;96727.72;6155286;23;20281;-79
2021/12/19 13:22:55;;;;;;;3.00;2.13;;;;;;;0.59;87.30;96731.13;6205678;23;20012;-79
2021/12/19 13:25:22;;;;;;;3.58;3.10;;;;;;;0.53;87.97;96727.19;6182878;23;20476;-78
2021/12/19 13:27:49;;;;;;;3.53;3.22;;;;;;;0.40;88.96;96723.78;6234559;23;20023;-79
2021/12/19 13:30:15;;;;;;;8.18;4.10;;;;;;;0.46;89.05;96726.78;6176634;23;20024;-79
2021/12/19 13:32:52;;;;;;;3.55;3.30;;;;;;;0.46;89.24;96737.03;6189249;23;20393;-79
2021/12/19 13:35:33;;;;;;;3.80;3.47;;;;;;;0.36;88.97;96720.59;6214478;23;20519;-79
2021/12/19 13:38:34;;;;;;;4.05;3.65;;;;;;;0.44;89.08;96726.06;6189679;23;20019;-79
2021/12/19 13:41:05;;;;;;;2.80;2.60;;;;;;;0.48;88.10;96721.56;6244665;23;20026;-80
2021/12/19 13:43:38;;;;;;;3.67;3.42;;;;;;;0.50;88.97;96724.81;6167191;23;20042;-78
2021/12/19 13:46:09;;;;;;;4.15;3.75;;;;;;;0.38;89.14;96708.50;6141051;23;20027;-79
2021/12/19 13:48:52;;;;;;;3.00;2.72;;;;;;;0.40;88.28;96696.38;6165641;23;20075;-79
2021/12/19 13:51:34;;;;;;;17.75;3.65;;;;;;;0.47;88.00;96712.19;6163936;23;20027;-78
2021/12/19 13:54:02;;;;;;;1.27;1.27;;;;;;;0.54;88.52;96721.16;6134804;23;20035;-79
2021/12/19 13:56:32;;;;;;;3.50;3.30;;;;;;;0.40;89.84;96716.09;6133420;23;20354;-79
2021/12/19 13:59:03;;;;;;;6.50;3.57;;;;;;;0.21;92.07;96700.25;6184808;23;20064;-79
2021/12/19 14:01:33;;;;;;;4.63;4.13;;;;;;;0.24;94.34;96725.69;6160022;23;20020;-80
2021/12/19 14:04:01;;;;;;;3.88;3.67;;;;;;;0.11;95.47;96724.81;6186308;23;20020;-79